createdAt,value
2022-11-01T00:01:12.069Z,12.13
2022-11-01T00:03:39.853Z,12.12
2022-11-01T00:06:07.376Z,12.10
2022-11-01T00:08:34.880Z,12.07
2022-11-01T00:11:08.014Z,12.03
2022-11-01T00:13:35.898Z,11.99
2022-11-01T00:16:03.622Z,12.00
2022-11-01T00:18:31.246Z,11.97
2022-11-01T00:20:58.699Z,11.92
2022-11-01T00:23:26.245Z,11.91
2022-11-01T00:25:53.928Z,11.89
2022-11-01T00:28:21.483Z,11.87
2022-11-01T00:30:53.287Z,11.86
2022-11-01T00:33:20.802Z,11.84
2022-11-01T00:35:48.964Z,11.80
2022-11-01T00:38:18.290Z,11.77
2022-11-01T00:40:46.200Z,11.72
2022-11-01T00:43:14.130Z,11.68
2022-11-01T00:45:45.034Z,11.66
2022-11-01T00:48:13.416Z,11.61
2022-11-01T00:50:41.222Z,11.56
2022-11-01T00:53:11.354Z,11.53
2022-11-01T00:55:38.874Z,11.50
2022-11-01T00:58:07.160Z,11.49
2022-11-01T01:00:35.759Z,11.46
2022-11-01T01:03:05.995Z,11.41
2022-11-01T01:05:34.619Z,11.39
2022-11-01T01:08:02.639Z,11.35
2022-11-01T01:10:31.035Z,11.30
2022-11-01T01:12:58.833Z,11.29
2022-11-01T01:15:26.685Z,11.28
2022-11-01T01:17:54.297Z,11.27
2022-11-01T01:20:22.414Z,11.25
2022-11-01T01:22:50.199Z,11.25
2022-11-01T01:25:18.354Z,11.25
2022-11-01T01:27:45.978Z,11.26
2022-11-01T01:30:13.722Z,11.28
2022-11-01T01:32:42.154Z,11.31
2022-11-01T01:35:10.260Z,11.36
2022-11-01T01:37:38.237Z,11.39
2022-11-01T01:40:06.962Z,11.41
2022-11-01T01:42:40.975Z,11.43
2022-11-01T01:45:37.856Z,11.42
2022-11-01T01:48:17.096Z,11.44
2022-11-01T01:50:59.837Z,11.44
2022-11-01T01:53:31.774Z,11.44
2022-11-01T01:56:30.396Z,11.44
2022-11-01T01:59:06.572Z,11.44
2022-11-01T02:01:40.283Z,11.43
2022-11-01T02:04:20.995Z,11.45
2022-11-01T02:06:48.692Z,11.43
2022-11-01T02:09:18.214Z,11.44
2022-11-01T02:11:46.223Z,11.45
2022-11-01T02:14:14.098Z,11.47
2022-11-01T02:17:08.689Z,11.49
2022-11-01T02:20:01.713Z,11.49
2022-11-01T02:22:48.368Z,11.52
2022-11-01T02:25:37.485Z,11.52
2022-11-01T02:28:29.771Z,11.52
2022-11-01T02:30:57.706Z,11.54
2022-11-01T02:33:48.499Z,11.56
2022-11-01T02:36:42.597Z,11.57
2022-11-01T02:39:23.336Z,11.58
2022-11-01T02:42:15.564Z,11.56
2022-11-01T02:44:54.084Z,11.57
2022-11-01T02:47:23.646Z,11.58
2022-11-01T02:49:56.038Z,11.58
2022-11-01T02:52:27.066Z,11.59
2022-11-01T02:55:05.476Z,11.61
2022-11-01T02:57:38.548Z,11.59
2022-11-01T03:00:24.408Z,11.57
2022-11-01T03:03:24.268Z,11.59
2022-11-01T03:06:01.247Z,11.59
2022-11-01T03:08:40.791Z,11.61
2022-11-01T03:11:14.589Z,11.62
2022-11-01T03:14:12.588Z,11.60
2022-11-01T03:16:53.816Z,11.61
2022-11-01T03:19:49.453Z,11.56
2022-11-01T03:22:29.353Z,11.54
2022-11-01T03:25:40.832Z,11.49
2022-11-01T03:28:22.230Z,11.43
2022-11-01T03:31:02.428Z,11.39
2022-11-01T03:33:33.249Z,11.37
2022-11-01T03:36:13.667Z,11.34
2022-11-01T03:38:47.321Z,11.32
2022-11-01T03:41:19.003Z,11.28
2022-11-01T03:43:47.989Z,11.25
2022-11-01T03:46:16.152Z,11.25
2022-11-01T03:48:44.146Z,11.23
2022-11-01T03:51:12.123Z,11.22
2022-11-01T03:53:39.801Z,11.22
2022-11-01T03:56:07.601Z,11.20
2022-11-01T03:58:41.977Z,11.21
2022-11-01T04:01:11.499Z,11.20
2022-11-01T04:03:39.565Z,11.19
2022-11-01T04:06:07.468Z,11.19
2022-11-01T04:08:36.896Z,11.20
2022-11-01T04:11:05.143Z,11.20
2022-11-01T04:13:32.775Z,11.19
2022-11-01T04:16:18.992Z,11.17
2022-11-01T04:19:05.103Z,11.19
2022-11-01T04:21:32.989Z,11.18
2022-11-01T04:24:00.787Z,11.17
2022-11-01T04:26:28.573Z,11.19
2022-11-01T04:28:59.609Z,11.18
2022-11-01T04:31:34.125Z,11.19
2022-11-01T04:34:03.744Z,11.19
2022-11-01T04:36:32.381Z,11.18
2022-11-01T04:39:04.471Z,11.16
2022-11-01T04:41:32.369Z,11.16
2022-11-01T04:44:00.253Z,11.15
2022-11-01T04:47:05.732Z,11.15
2022-11-01T04:49:39.201Z,11.13
2022-11-01T04:52:07.901Z,11.16
2022-11-01T04:54:39.474Z,11.18
2022-11-01T04:57:07.655Z,11.19
2022-11-01T04:59:36.676Z,11.19
2022-11-01T05:02:04.912Z,11.17
2022-11-01T05:04:36.120Z,11.19
2022-11-01T05:07:07.454Z,11.21
2022-11-01T05:09:35.475Z,11.22
2022-11-01T05:12:03.441Z,11.21
2022-11-01T05:14:31.151Z,11.22
2022-11-01T05:16:59.696Z,11.22
2022-11-01T05:19:27.392Z,11.25
2022-11-01T05:21:55.079Z,11.26
2022-11-01T05:24:22.766Z,11.28
2022-11-01T05:26:51.048Z,11.28
2022-11-01T05:29:24.835Z,11.28
2022-11-01T05:32:03.933Z,11.31
2022-11-01T05:34:33.998Z,11.30
2022-11-01T05:37:01.834Z,11.32
2022-11-01T05:39:30.059Z,11.31
2022-11-01T05:42:00.067Z,11.31
2022-11-01T05:44:30.763Z,11.31
2022-11-01T05:46:58.519Z,11.31
2022-11-01T05:49:26.228Z,11.33
2022-11-01T05:51:54.153Z,11.31
2022-11-01T05:54:21.900Z,11.31
2022-11-01T05:56:49.695Z,11.30
2022-11-01T05:59:17.647Z,11.30
2022-11-01T06:01:45.541Z,11.29
2022-11-01T06:04:13.541Z,11.28
2022-11-01T06:06:42.396Z,11.27
2022-11-01T06:09:11.362Z,11.26
2022-11-01T06:11:41.825Z,11.24
2022-11-01T06:14:11.081Z,11.26
2022-11-01T06:16:38.842Z,11.25
2022-11-01T06:22:14.300Z,11.26
2022-11-01T06:24:42.356Z,11.26
2022-11-01T06:27:15.102Z,11.24
2022-11-01T06:29:42.952Z,11.23
2022-11-01T06:32:10.524Z,11.23
2022-11-01T06:34:42.270Z,11.23
2022-11-01T06:37:13.623Z,11.23
2022-11-01T06:39:41.274Z,11.23
2022-11-01T06:42:10.300Z,11.25
2022-11-01T06:44:42.803Z,11.25
2022-11-01T06:47:14.171Z,11.25
2022-11-01T06:49:41.985Z,11.23
2022-11-01T06:52:09.767Z,11.25
2022-11-01T06:54:40.154Z,11.24
2022-11-01T06:57:08.414Z,11.23
2022-11-01T06:59:39.131Z,11.22
2022-11-01T07:02:12.396Z,11.25
2022-11-01T07:04:41.901Z,11.25
2022-11-01T07:07:09.542Z,11.25
2022-11-01T07:09:40.114Z,11.23
2022-11-01T07:12:08.000Z,11.26
2022-11-01T07:14:35.875Z,11.23
2022-11-01T07:17:03.649Z,11.24
2022-11-01T07:19:35.153Z,11.28
2022-11-01T07:22:03.194Z,11.30
2022-11-01T07:24:30.855Z,11.33
2022-11-01T07:26:58.960Z,11.36
2022-11-01T07:29:27.776Z,11.38
2022-11-01T07:31:55.376Z,11.38
2022-11-01T07:34:23.247Z,11.35
2022-11-01T07:36:53.069Z,11.31
2022-11-01T07:39:20.835Z,11.29
2022-11-01T07:41:48.319Z,11.30
2022-11-01T07:44:15.821Z,11.32
2022-11-01T07:46:43.359Z,11.36
2022-11-01T07:49:11.093Z,11.36
2022-11-01T07:51:38.620Z,11.36
2022-11-01T07:54:06.195Z,11.36
2022-11-01T07:56:34.377Z,11.39
2022-11-01T07:59:01.927Z,11.36
2022-11-01T08:01:29.651Z,11.37
2022-11-01T08:04:00.356Z,11.38
2022-11-01T08:06:28.361Z,11.33
2022-11-01T08:08:55.866Z,11.26
2022-11-01T08:11:23.385Z,11.23
2022-11-01T08:13:50.876Z,11.18
2022-11-01T08:16:18.467Z,11.16
2022-11-01T08:18:46.216Z,11.15
2022-11-01T08:21:18.775Z,11.18
2022-11-01T08:23:46.950Z,11.20
2022-11-01T08:26:14.841Z,11.25
2022-11-01T08:28:42.967Z,11.27
2022-11-01T08:31:11.051Z,11.30
2022-11-01T08:33:38.620Z,11.34
2022-11-01T08:36:06.395Z,11.37
2022-11-01T08:38:34.012Z,11.44
2022-11-01T08:41:01.587Z,11.49
2022-11-01T08:43:29.481Z,11.52
2022-11-01T08:46:00.054Z,11.54
2022-11-01T08:48:27.590Z,11.61
2022-11-01T08:50:55.293Z,11.67
2022-11-01T08:53:24.968Z,11.76
2022-11-01T08:55:56.534Z,11.84
2022-11-01T08:58:25.005Z,11.95
2022-11-01T09:00:52.672Z,12.01
2022-11-01T09:03:20.419Z,11.96
2022-11-01T09:05:48.737Z,11.83
2022-11-01T09:08:16.282Z,11.69
2022-11-01T09:10:44.202Z,11.60
2022-11-01T09:13:11.769Z,11.53
2022-11-01T09:15:39.263Z,11.49
2022-11-01T09:18:07.572Z,11.45
2022-11-01T09:20:35.338Z,11.43
2022-11-01T09:23:03.186Z,11.45
2022-11-01T09:25:30.970Z,11.49
2022-11-01T09:27:58.535Z,11.53
2022-11-01T09:30:26.710Z,11.56
2022-11-01T09:32:54.300Z,11.59
2022-11-01T09:35:21.859Z,11.64
2022-11-01T09:37:49.375Z,11.73
2022-11-01T09:40:17.040Z,11.85
2022-11-01T09:42:46.241Z,11.99
2022-11-01T09:45:17.708Z,11.99
2022-11-01T09:47:50.487Z,11.95
2022-11-01T09:50:25.938Z,11.91
2022-11-01T09:52:55.532Z,11.85
2022-11-01T09:55:41.670Z,11.80
2022-11-01T09:58:23.786Z,11.94
2022-11-01T10:01:03.389Z,12.10
2022-11-01T10:03:36.959Z,12.27
2022-11-01T10:06:25.002Z,12.35
2022-11-01T10:09:23.426Z,12.38
2022-11-01T10:12:28.823Z,12.28
2022-11-01T10:15:05.337Z,12.25
2022-11-01T10:17:52.381Z,12.08
2022-11-01T10:20:24.637Z,12.06
2022-11-01T10:22:52.360Z,12.06
2022-11-01T10:25:29.768Z,12.01
2022-11-01T10:28:21.029Z,11.96
2022-11-01T10:30:54.687Z,11.93
2022-11-01T10:33:30.557Z,11.88
2022-11-01T10:36:21.384Z,11.83
2022-11-01T10:41:52.421Z,11.88
2022-11-01T10:44:30.749Z,11.88
2022-11-01T10:47:02.883Z,11.92
2022-11-01T10:50:05.976Z,11.97
2022-11-01T10:52:42.642Z,11.99
2022-11-01T10:55:17.945Z,12.35
2022-11-01T10:57:51.710Z,13.00
2022-11-01T11:00:21.096Z,13.14
2022-11-01T11:02:52.944Z,13.04
2022-11-01T11:05:22.455Z,12.86
2022-11-01T11:07:50.784Z,12.62
2022-11-01T11:10:27.197Z,12.49
2022-11-01T11:13:05.538Z,12.48
2022-11-01T11:15:46.203Z,12.66
2022-11-01T11:18:24.663Z,12.81
2022-11-01T11:21:00.163Z,12.79
2022-11-01T11:23:31.101Z,12.71
2022-11-01T11:26:19.822Z,12.61
2022-11-01T11:28:54.859Z,12.53
2022-11-01T11:31:29.129Z,12.43
2022-11-01T11:33:59.096Z,12.33
2022-11-01T11:36:48.198Z,12.25
2022-11-01T11:39:59.957Z,12.23
2022-11-01T11:42:27.528Z,12.24
2022-11-01T11:44:57.000Z,12.26
2022-11-01T11:47:26.918Z,12.39
2022-11-01T11:49:56.659Z,12.61
2022-11-01T11:52:38.046Z,13.56
2022-11-01T11:55:35.932Z,14.19
2022-11-01T11:58:06.380Z,14.37
2022-11-01T12:00:37.858Z,14.29
2022-11-01T12:03:08.106Z,14.29
2022-11-01T12:05:35.761Z,14.35
2022-11-01T12:08:32.162Z,14.38
2022-11-01T12:10:59.876Z,14.24
2022-11-01T12:13:37.009Z,14.18
2022-11-01T12:16:09.117Z,14.69
2022-11-01T12:18:56.416Z,14.94
2022-11-01T12:21:41.691Z,14.97
2022-11-01T12:24:21.717Z,14.94
2022-11-01T12:26:52.240Z,14.62
2022-11-01T12:29:34.939Z,14.09
2022-11-01T12:32:18.946Z,13.64
2022-11-01T12:34:49.277Z,13.44
2022-11-01T12:37:26.491Z,14.14
2022-11-01T12:40:02.893Z,15.03
2022-11-01T12:42:43.603Z,15.76
2022-11-01T12:45:20.932Z,16.36
2022-11-01T12:47:54.699Z,16.45
2022-11-01T12:50:26.303Z,16.48
2022-11-01T12:53:06.388Z,16.35
2022-11-01T12:55:39.578Z,16.33
2022-11-01T12:58:13.307Z,15.99
2022-11-01T13:01:14.119Z,15.61
2022-11-01T13:04:14.464Z,15.03
2022-11-01T13:06:54.054Z,14.58
2022-11-01T13:09:51.977Z,14.35
2022-11-01T13:12:25.405Z,14.16
2022-11-01T13:14:58.604Z,14.00
2022-11-01T13:17:38.373Z,13.95
2022-11-01T13:20:35.332Z,13.80
2022-11-01T13:23:18.414Z,13.70
2022-11-01T13:25:55.667Z,13.64
2022-11-01T13:28:26.063Z,13.65
2022-11-01T13:31:13.956Z,13.58
2022-11-01T13:34:26.566Z,13.51
2022-11-01T13:37:12.397Z,13.38
2022-11-01T13:40:16.204Z,13.19
2022-11-01T13:42:49.929Z,13.00
2022-11-01T13:45:26.581Z,12.84
2022-11-01T13:47:54.131Z,12.76
2022-11-01T13:50:43.270Z,12.71
2022-11-01T13:53:40.582Z,12.82
2022-11-01T13:56:34.191Z,13.01
2022-11-01T13:59:03.657Z,13.08
2022-11-01T14:01:36.845Z,13.03
2022-11-01T14:04:16.655Z,13.01
2022-11-01T14:06:51.550Z,12.99
2022-11-01T14:09:27.947Z,13.01
2022-11-01T14:11:55.467Z,13.00
2022-11-01T14:14:46.010Z,12.90
2022-11-01T14:17:16.448Z,12.89
2022-11-01T14:19:47.313Z,12.87
2022-11-01T14:22:27.362Z,12.83
2022-11-01T14:24:59.062Z,12.80
2022-11-01T14:27:32.583Z,12.82
2022-11-01T14:30:00.330Z,12.84
2022-11-01T14:32:32.202Z,12.84
2022-11-01T14:35:12.083Z,12.82
2022-11-01T14:37:47.901Z,12.81
2022-11-01T14:40:26.611Z,12.73
2022-11-01T14:42:58.285Z,12.66
2022-11-01T14:45:33.067Z,12.62
2022-11-01T14:48:07.209Z,12.56
2022-11-01T14:50:44.968Z,12.48
2022-11-01T14:53:15.300Z,12.43
2022-11-01T14:55:42.831Z,12.38
2022-11-01T14:58:23.200Z,12.34
2022-11-01T15:00:54.858Z,12.27
2022-11-01T15:03:23.365Z,12.25
2022-11-01T15:05:53.026Z,12.21
2022-11-01T15:08:31.001Z,12.17
2022-11-01T15:11:03.419Z,12.11
2022-11-01T15:13:34.592Z,12.05
2022-11-01T15:16:08.646Z,12.00
2022-11-01T15:18:44.490Z,11.97
2022-11-01T15:23:50.806Z,11.97
2022-11-01T15:26:23.897Z,12.02
2022-11-01T15:28:54.499Z,12.06
2022-11-01T15:31:22.366Z,12.11
2022-11-01T15:34:01.041Z,12.10
2022-11-01T15:36:37.351Z,12.06
2022-11-01T15:39:19.356Z,12.02
2022-11-01T15:41:48.358Z,11.99
2022-11-01T15:44:20.359Z,11.95
2022-11-01T15:46:49.229Z,11.93
2022-11-01T15:49:25.782Z,11.91
2022-11-01T15:51:58.216Z,11.90
2022-11-01T15:54:48.888Z,11.85
2022-11-01T15:57:33.730Z,11.83
2022-11-01T16:00:08.215Z,11.79
2022-11-01T16:02:50.770Z,11.75
2022-11-01T16:05:21.035Z,11.72
2022-11-01T16:07:49.103Z,11.69
2022-11-01T16:10:29.763Z,11.62
2022-11-01T16:13:00.053Z,11.59
2022-11-01T16:15:33.156Z,11.53
2022-11-01T16:18:13.233Z,11.45
2022-11-01T16:20:41.103Z,11.41
2022-11-01T16:23:14.835Z,11.37
2022-11-01T16:25:42.499Z,11.34
2022-11-01T16:28:09.937Z,11.28
2022-11-01T16:30:56.551Z,11.26
2022-11-01T16:33:36.565Z,11.22
2022-11-01T16:36:33.252Z,11.16
2022-11-01T16:39:00.964Z,11.17
2022-11-01T16:41:39.864Z,11.15
2022-11-01T16:44:14.692Z,11.14
2022-11-01T16:46:42.400Z,11.12
2022-11-01T16:49:25.119Z,11.14
2022-11-01T16:51:56.399Z,11.14
2022-11-01T16:54:25.123Z,11.13
2022-11-01T16:56:55.465Z,11.11
2022-11-01T16:59:38.247Z,11.12
2022-11-01T17:02:22.266Z,11.12
2022-11-01T17:04:54.037Z,11.11
2022-11-01T17:07:21.683Z,11.08
2022-11-01T17:09:49.195Z,11.04
2022-11-01T17:12:16.748Z,11.02
2022-11-01T17:14:45.863Z,10.99
2022-11-01T17:17:17.160Z,10.98
2022-11-01T17:19:49.067Z,10.98
2022-11-01T17:22:21.035Z,10.98
2022-11-01T17:24:49.672Z,10.99
2022-11-01T17:27:19.087Z,10.97
2022-11-01T17:29:46.726Z,10.96
2022-11-01T17:32:14.687Z,10.92
2022-11-01T17:34:42.296Z,10.87
2022-11-01T17:37:15.289Z,10.83
2022-11-01T17:39:43.662Z,10.80
2022-11-01T17:42:11.593Z,10.75
2022-11-01T17:44:39.870Z,10.73
2022-11-01T17:47:14.056Z,10.70
2022-11-01T17:49:42.606Z,10.66
2022-11-01T17:52:10.324Z,10.65
2022-11-01T17:54:37.901Z,10.66
2022-11-01T17:57:05.636Z,10.67
2022-11-01T17:59:33.253Z,10.67
2022-11-01T18:02:01.073Z,10.66
2022-11-01T18:04:34.079Z,10.64
2022-11-01T18:07:06.541Z,10.61
2022-11-01T18:09:34.228Z,10.58
2022-11-01T18:12:20.926Z,10.54
2022-11-01T18:15:01.567Z,10.51
2022-11-01T18:17:34.929Z,10.49
2022-11-01T18:20:39.638Z,10.46
2022-11-01T18:23:13.128Z,10.48
2022-11-01T18:25:44.211Z,10.48
2022-11-01T18:28:17.120Z,10.47
2022-11-01T18:30:49.086Z,10.46
2022-11-01T18:33:32.838Z,10.45
2022-11-01T18:36:08.877Z,10.44
2022-11-01T18:39:18.306Z,10.43
2022-11-01T18:41:46.406Z,10.46
2022-11-01T18:44:14.618Z,10.52
2022-11-01T18:46:55.202Z,10.55
2022-11-01T18:49:26.842Z,10.56
2022-11-01T18:51:55.425Z,10.57
2022-11-01T18:54:30.627Z,10.58
2022-11-01T18:57:07.815Z,10.58
2022-11-01T18:59:38.842Z,10.59
2022-11-01T19:02:12.509Z,10.58
2022-11-01T19:04:42.750Z,10.58
2022-11-01T19:07:19.204Z,10.58
2022-11-01T19:10:00.276Z,10.56
2022-11-01T19:12:33.313Z,10.54
2022-11-01T19:15:16.626Z,10.53
2022-11-01T19:17:45.083Z,10.51
2022-11-01T19:20:38.758Z,10.49
2022-11-01T19:23:12.673Z,10.51
2022-11-01T19:25:43.708Z,10.51
2022-11-01T19:28:24.034Z,10.51
2022-11-01T19:30:52.596Z,10.51
2022-11-01T19:33:37.380Z,10.52
2022-11-01T19:36:13.535Z,10.58
2022-11-01T19:38:45.121Z,10.61
2022-11-01T19:41:15.654Z,10.63
2022-11-01T19:43:43.228Z,10.64
2022-11-01T19:46:16.425Z,10.66
2022-11-01T19:48:44.013Z,10.64
2022-11-01T19:51:19.557Z,10.62
2022-11-01T19:53:47.206Z,10.60
2022-11-01T19:56:22.183Z,10.60
2022-11-01T19:59:00.700Z,10.58
2022-11-01T20:01:36.368Z,10.57
2022-11-01T20:04:20.916Z,10.57
2022-11-01T20:07:08.785Z,10.55
2022-11-01T20:09:37.151Z,10.56
2022-11-01T20:12:05.230Z,10.53
2022-11-01T20:14:34.278Z,10.53
2022-11-01T20:17:02.698Z,10.53
2022-11-01T20:19:31.428Z,10.58
2022-11-01T20:21:59.177Z,10.59
2022-11-01T20:24:27.597Z,10.59
2022-11-01T20:26:55.654Z,10.59
2022-11-01T20:29:23.838Z,10.59
2022-11-01T20:31:52.350Z,10.60
2022-11-01T20:34:20.749Z,10.59
2022-11-01T20:37:08.206Z,10.57
2022-11-01T20:39:35.935Z,10.53
2022-11-01T20:42:04.083Z,10.49
2022-11-01T20:44:31.683Z,10.48
2022-11-01T20:46:59.142Z,10.48
2022-11-01T20:49:27.501Z,10.46
2022-11-01T20:51:57.736Z,10.45
2022-11-01T20:54:31.906Z,10.38
2022-11-01T20:56:59.398Z,10.31
2022-11-01T20:59:26.971Z,10.24
2022-11-01T21:01:55.163Z,10.22
2022-11-01T21:04:22.759Z,10.22
2022-11-01T21:06:50.674Z,10.22
2022-11-01T21:09:36.436Z,10.22
2022-11-01T21:12:35.162Z,10.25
2022-11-01T21:15:23.703Z,10.27
2022-11-01T21:18:00.666Z,10.27
2022-11-01T21:20:29.770Z,10.28
2022-11-01T21:23:28.783Z,10.27
2022-11-01T21:25:58.033Z,10.30
2022-11-01T21:28:35.399Z,10.33
2022-11-01T21:31:14.761Z,10.33
2022-11-01T21:33:51.326Z,10.35
2022-11-01T21:36:19.781Z,10.36
2022-11-01T21:38:52.211Z,10.36
2022-11-01T21:41:28.897Z,10.37
2022-11-01T21:43:56.656Z,10.35
2022-11-01T21:46:27.205Z,10.34
2022-11-01T21:49:00.112Z,10.32
2022-11-01T21:51:29.770Z,10.30
2022-11-01T21:54:01.662Z,10.26
2022-11-01T21:56:31.976Z,10.21
2022-11-01T21:58:59.471Z,10.16
2022-11-01T22:04:36.691Z,10.05
2022-11-01T22:07:06.968Z,10.02
2022-11-01T22:16:36.228Z,9.89
2022-11-01T22:23:08.691Z,9.83
2022-11-01T22:25:36.243Z,9.81
2022-11-01T22:28:06.203Z,9.81
2022-11-01T22:30:33.786Z,9.81
2022-11-01T22:33:01.560Z,9.80
2022-11-01T22:35:29.244Z,9.81
2022-11-01T22:37:57.098Z,9.80
2022-11-01T22:40:24.692Z,9.84
2022-11-01T22:42:58.959Z,9.87
2022-11-01T22:45:26.537Z,9.89
2022-11-01T22:47:54.034Z,9.91
2022-11-01T22:50:27.492Z,9.90
2022-11-01T22:52:54.999Z,9.89
2022-11-01T22:55:27.565Z,9.90
2022-11-01T22:58:00.396Z,9.89
2022-11-01T23:00:37.220Z,9.88
2022-11-01T23:03:04.990Z,9.84
2022-11-01T23:05:34.953Z,9.79
2022-11-01T23:08:24.655Z,9.72
2022-11-01T23:10:52.528Z,9.66
2022-11-01T23:13:43.689Z,9.59
2022-11-01T23:16:34.017Z,9.54
2022-11-01T23:19:06.260Z,9.50
2022-11-01T23:21:34.066Z,9.49
2022-11-01T23:24:01.662Z,9.49
2022-11-01T23:26:30.793Z,9.46
2022-11-01T23:28:59.015Z,9.45
2022-11-01T23:31:28.605Z,9.43
2022-11-01T23:33:56.335Z,9.41
2022-11-01T23:36:30.453Z,9.36
2022-11-01T23:39:01.743Z,9.31
2022-11-01T23:41:41.631Z,9.29
2022-11-01T23:44:51.493Z,9.23
2022-11-01T23:47:20.960Z,9.23
2022-11-01T23:50:09.860Z,9.25
2022-11-01T23:52:45.890Z,9.28
2022-11-01T23:55:24.909Z,9.35
2022-11-01T23:57:54.529Z,9.42
